createdAt,value
2018-06-29T00:04:12.533Z,7.60
2018-06-29T00:08:47.010Z,6.85
2018-06-29T00:13:21.563Z,6.97
2018-06-29T00:17:55.774Z,6.83
2018-06-29T00:22:30.349Z,7.25
2018-06-29T00:27:05.063Z,7.85
2018-06-29T00:31:39.305Z,7.70
2018-06-29T00:36:14.662Z,7.78
2018-06-29T00:40:49.424Z,7.60
2018-06-29T00:45:24.262Z,7.08
2018-06-29T00:49:58.635Z,8.08
2018-06-29T00:54:33.133Z,7.53
2018-06-29T00:59:07.923Z,7.65
2018-06-29T01:03:42.264Z,7.50
2018-06-29T01:08:16.799Z,7.12
2018-06-29T01:12:51.155Z,8.00
2018-06-29T01:17:25.621Z,7.33
2018-06-29T01:22:00.047Z,6.95
2018-06-29T01:26:34.378Z,7.50
2018-06-29T01:31:09.475Z,8.28
2018-06-29T01:35:43.937Z,7.12
2018-06-29T01:40:18.425Z,8.15
2018-06-29T01:44:52.983Z,8.40
2018-06-29T01:49:27.069Z,7.90
2018-06-29T01:54:01.515Z,7.80
2018-06-29T01:58:35.984Z,8.00
2018-06-29T02:03:10.561Z,7.90
2018-06-29T02:07:45.225Z,8.38
2018-06-29T02:12:19.621Z,8.15
2018-06-29T02:16:54.896Z,8.00
2018-06-29T02:21:29.358Z,8.18
2018-06-29T02:26:03.226Z,8.28
2018-06-29T02:30:37.679Z,8.38
2018-06-29T02:35:12.037Z,11.28
2018-06-29T02:39:46.463Z,7.65
2018-06-29T02:44:21.211Z,8.78
2018-06-29T02:48:55.780Z,8.43
2018-06-29T02:53:30.305Z,9.15
2018-06-29T02:58:04.873Z,7.78
2018-06-29T03:02:39.434Z,7.97
2018-06-29T03:07:13.858Z,7.72
2018-06-29T03:11:48.209Z,8.30
2018-06-29T03:16:22.532Z,8.35
2018-06-29T03:20:56.997Z,8.90
2018-06-29T03:25:32.426Z,9.43
2018-06-29T03:30:06.957Z,8.98
2018-06-29T03:34:41.440Z,9.30
2018-06-29T03:39:15.878Z,10.68
2018-06-29T03:43:50.485Z,9.30
2018-06-29T03:48:24.878Z,10.08
2018-06-29T03:52:59.761Z,9.55
2018-06-29T03:57:34.027Z,9.15
2018-06-29T04:02:08.448Z,9.40
2018-06-29T04:06:42.885Z,9.33
2018-06-29T04:11:17.277Z,9.45
2018-06-29T04:15:52.041Z,10.45
2018-06-29T04:20:26.561Z,8.98
2018-06-29T04:25:02.782Z,8.83
2018-06-29T04:29:36.988Z,10.28
2018-06-29T04:34:11.338Z,10.20
2018-06-29T04:38:45.964Z,8.48
2018-06-29T04:43:20.201Z,11.95
2018-06-29T04:47:54.714Z,8.48
2018-06-29T04:52:28.781Z,8.75
2018-06-29T04:57:03.302Z,9.93
2018-06-29T05:01:37.942Z,7.58
2018-06-29T05:06:12.280Z,7.40
2018-06-29T05:10:46.830Z,8.93
2018-06-29T05:15:21.306Z,6.78
2018-06-29T05:19:56.100Z,6.85
2018-06-29T05:24:30.626Z,6.90
2018-06-29T05:29:05.177Z,8.70
2018-06-29T05:33:39.414Z,7.85
2018-06-29T05:38:14.513Z,7.03
2018-06-29T05:42:49.089Z,8.50
2018-06-29T05:47:23.293Z,7.45
2018-06-29T05:51:59.232Z,8.00
2018-06-29T05:56:33.713Z,7.75
2018-06-29T06:01:10.586Z,6.22
2018-06-29T06:05:44.862Z,6.20
2018-06-29T06:10:19.406Z,5.72
2018-06-29T06:14:53.860Z,7.92
2018-06-29T06:19:39.270Z,4.87
2018-06-29T06:24:14.218Z,4.80
2018-06-29T06:28:48.698Z,4.87
2018-06-29T06:33:23.236Z,6.90
2018-06-29T06:37:58.213Z,4.35
2018-06-29T06:42:32.725Z,7.03
2018-06-29T06:47:07.346Z,7.90
2018-06-29T06:51:41.818Z,5.65
2018-06-29T06:56:16.227Z,4.50
2018-06-29T07:00:50.594Z,4.58
2018-06-29T07:05:24.933Z,4.65
2018-06-29T07:09:59.338Z,4.95
2018-06-29T07:14:33.730Z,3.80
2018-06-29T07:19:08.418Z,4.92
2018-06-29T07:23:42.881Z,3.67
2018-06-29T07:28:17.414Z,5.35
2018-06-29T07:32:51.737Z,4.83
2018-06-29T07:37:26.319Z,5.92
2018-06-29T07:42:00.689Z,4.47
2018-06-29T07:46:35.145Z,4.60
2018-06-29T07:51:09.560Z,3.60
2018-06-29T07:55:43.829Z,6.87
2018-06-29T08:00:18.330Z,9.63
2018-06-29T08:04:53.421Z,4.00
2018-06-29T08:09:27.866Z,8.50
2018-06-29T08:14:02.190Z,7.03
2018-06-29T08:18:37.106Z,5.25
2018-06-29T08:23:11.773Z,5.22
2018-06-29T08:27:46.785Z,4.20
2018-06-29T08:32:21.049Z,4.55
2018-06-29T08:36:55.625Z,4.90
2018-06-29T08:41:30.657Z,5.80
2018-06-29T08:46:05.394Z,5.03
2018-06-29T08:50:39.795Z,8.15
2018-06-29T08:55:14.374Z,7.30
2018-06-29T08:59:48.762Z,4.78
2018-06-29T09:04:23.090Z,6.33
2018-06-29T09:08:57.508Z,5.85
2018-06-29T09:13:31.897Z,8.38
2018-06-29T09:18:06.143Z,5.80
2018-06-29T09:22:40.637Z,5.33
2018-06-29T09:27:14.947Z,6.30
2018-06-29T09:31:49.517Z,6.92
2018-06-29T09:36:23.759Z,4.87
2018-06-29T09:40:58.387Z,5.83
2018-06-29T09:45:33.205Z,6.50
2018-06-29T09:50:07.621Z,6.00
2018-06-29T09:54:41.513Z,6.00
2018-06-29T09:59:15.925Z,4.62
2018-06-29T10:03:50.212Z,6.97
2018-06-29T10:08:24.676Z,5.67
2018-06-29T10:12:59.013Z,6.08
2018-06-29T10:17:33.545Z,6.60
2018-06-29T10:22:07.887Z,7.47
2018-06-29T10:26:42.298Z,4.20
2018-06-29T10:31:16.826Z,7.50
2018-06-29T10:35:51.190Z,4.10
2018-06-29T10:40:25.370Z,3.87
2018-06-29T10:44:59.623Z,4.78
2018-06-29T10:49:34.050Z,5.50
2018-06-29T10:54:08.610Z,6.03
2018-06-29T10:58:43.027Z,7.05
2018-06-29T11:03:17.377Z,4.72
2018-06-29T11:07:51.961Z,3.60
2018-06-29T11:12:26.489Z,7.37
2018-06-29T11:17:00.831Z,5.90
2018-06-29T11:21:35.113Z,4.97
2018-06-29T11:26:09.382Z,6.85
2018-06-29T11:30:43.710Z,5.87
2018-06-29T11:35:18.824Z,3.47
2018-06-29T11:39:53.432Z,5.05
2018-06-29T11:44:27.938Z,7.45
2018-06-29T11:49:02.302Z,6.60
2018-06-29T11:53:37.426Z,4.28
2018-06-29T11:58:12.669Z,3.92
2018-06-29T12:02:47.178Z,3.98
2018-06-29T12:07:21.130Z,5.30
2018-06-29T12:11:55.847Z,5.08
2018-06-29T12:16:29.797Z,5.03
2018-06-29T12:21:04.316Z,12.45
2018-06-29T12:25:38.651Z,8.88
2018-06-29T12:30:13.519Z,3.70
2018-06-29T12:34:48.278Z,5.97
2018-06-29T12:39:23.227Z,4.03
2018-06-29T12:43:57.592Z,3.98
2018-06-29T12:48:32.051Z,4.30
2018-06-29T12:53:07.177Z,6.62
2018-06-29T12:57:41.742Z,6.37
2018-06-29T13:02:16.178Z,5.15
2018-06-29T13:06:50.594Z,5.55
2018-06-29T13:11:25.354Z,4.28
2018-06-29T13:16:02.225Z,5.40
2018-06-29T13:20:36.812Z,5.50
2018-06-29T13:25:11.527Z,4.15
2018-06-29T13:29:46.597Z,5.67
2018-06-29T13:34:21.037Z,5.15
2018-06-29T13:38:55.442Z,4.55
2018-06-29T13:43:29.913Z,7.47
2018-06-29T13:48:04.485Z,5.67
2018-06-29T13:52:38.733Z,4.30
2018-06-29T13:57:13.814Z,4.30
2018-06-29T14:01:49.985Z,5.83
2018-06-29T14:06:25.654Z,6.33
2018-06-29T14:11:00.425Z,5.58
2018-06-29T14:15:34.952Z,4.45
2018-06-29T14:20:09.567Z,5.30
2018-06-29T14:24:43.774Z,5.37
2018-06-29T14:29:18.175Z,4.05
2018-06-29T14:33:57.542Z,4.70
2018-06-29T14:38:32.286Z,4.37
2018-06-29T14:43:06.782Z,5.17
2018-06-29T14:47:41.301Z,5.12
2018-06-29T14:52:15.940Z,7.17
2018-06-29T14:56:50.497Z,6.05
2018-06-29T15:01:24.749Z,7.10
2018-06-29T15:05:59.357Z,5.35
2018-06-29T15:10:33.746Z,5.65
2018-06-29T15:15:10.195Z,4.80
2018-06-29T15:19:45.943Z,4.20
2018-06-29T15:24:21.005Z,4.85
2018-06-29T15:28:56.158Z,4.20
2018-06-29T15:33:30.634Z,6.70
2018-06-29T15:38:05.221Z,6.30
2018-06-29T15:42:39.924Z,6.20
2018-06-29T15:47:16.099Z,4.40
2018-06-29T15:51:50.523Z,4.83
2018-06-29T15:56:25.071Z,4.58
2018-06-29T16:00:59.756Z,4.50
2018-06-29T16:05:34.241Z,4.47
2018-06-29T16:10:08.878Z,9.23
2018-06-29T16:14:43.423Z,5.05
2018-06-29T16:19:17.917Z,5.45
2018-06-29T16:23:52.196Z,5.37
2018-06-29T16:28:27.513Z,5.92
2018-06-29T16:33:02.701Z,4.47
2018-06-29T16:37:37.309Z,6.35
2018-06-29T16:42:11.734Z,8.00
2018-06-29T16:46:47.136Z,5.62
2018-06-29T16:51:22.263Z,5.65
2018-06-29T16:55:57.043Z,4.35
2018-06-29T17:00:31.418Z,5.97
2018-06-29T17:05:05.973Z,4.83
2018-06-29T17:09:40.586Z,4.28
2018-06-29T17:14:16.341Z,5.10
2018-06-29T17:18:50.871Z,5.42
2018-06-29T17:23:25.265Z,5.70
2018-06-29T17:27:59.865Z,4.62
2018-06-29T17:32:34.425Z,5.12
2018-06-29T17:37:08.931Z,6.72
2018-06-29T17:41:43.485Z,4.75
2018-06-29T17:46:17.733Z,5.60
2018-06-29T17:50:52.094Z,4.78
2018-06-29T17:55:26.874Z,5.62
2018-06-29T18:00:01.066Z,4.80
2018-06-29T18:04:35.398Z,5.05
2018-06-29T18:09:12.269Z,6.30
2018-06-29T18:13:46.673Z,5.15
2018-06-29T18:18:21.193Z,4.65
2018-06-29T18:22:55.581Z,4.58
2018-06-29T18:27:30.171Z,4.12
2018-06-29T18:32:04.739Z,4.90
2018-06-29T18:36:45.793Z,5.30
2018-06-29T18:41:19.826Z,6.70
2018-06-29T18:45:54.787Z,4.92
2018-06-29T18:50:29.182Z,5.37
2018-06-29T18:55:03.466Z,5.03
2018-06-29T18:59:37.899Z,6.50
2018-06-29T19:04:12.414Z,5.17
2018-06-29T19:08:48.223Z,8.23
2018-06-29T19:13:22.812Z,5.12
2018-06-29T19:17:57.194Z,6.95
2018-06-29T19:22:31.789Z,5.10
2018-06-29T19:27:06.347Z,5.58
2018-06-29T19:31:40.685Z,7.08
2018-06-29T19:36:16.480Z,7.22
2018-06-29T19:40:50.898Z,6.55
2018-06-29T19:45:25.198Z,8.48
2018-06-29T19:50:00.380Z,5.60
2018-06-29T19:54:34.738Z,6.22
2018-06-29T19:59:09.202Z,6.67
2018-06-29T20:03:43.495Z,7.00
2018-06-29T20:08:19.459Z,6.40
2018-06-29T20:12:54.505Z,6.58
2018-06-29T20:17:31.710Z,7.62
2018-06-29T20:22:06.303Z,8.05
2018-06-29T20:26:42.272Z,6.83
2018-06-29T20:31:17.000Z,6.80
2018-06-29T20:35:52.463Z,6.85
2018-06-29T20:40:27.333Z,9.95
2018-06-29T20:45:04.388Z,8.30
2018-06-29T20:49:40.730Z,8.73
2018-06-29T20:54:15.566Z,8.05
2018-06-29T20:58:50.098Z,7.67
2018-06-29T21:03:24.538Z,8.35
2018-06-29T21:07:58.875Z,7.00
2018-06-29T21:12:33.569Z,7.90
2018-06-29T21:17:08.011Z,7.33
2018-06-29T21:21:42.865Z,6.85
2018-06-29T21:26:17.240Z,8.10
2018-06-29T21:30:51.557Z,7.78
2018-06-29T21:35:26.807Z,8.85
2018-06-29T21:40:01.325Z,8.58
2018-06-29T21:44:35.621Z,8.20
2018-06-29T21:49:11.348Z,7.40
2018-06-29T21:53:45.698Z,7.87
2018-06-29T21:58:20.349Z,8.28
2018-06-29T22:02:54.773Z,9.00
2018-06-29T22:07:29.621Z,9.65
2018-06-29T22:12:04.823Z,9.40
2018-06-29T22:16:39.159Z,11.80
2018-06-29T22:21:13.787Z,8.70
2018-06-29T22:25:48.401Z,8.73
2018-06-29T22:30:22.621Z,8.78
2018-06-29T22:34:57.038Z,8.08
2018-06-29T22:39:31.468Z,9.65
2018-06-29T22:44:05.950Z,8.83
2018-06-29T22:48:40.489Z,8.53
2018-06-29T22:53:15.245Z,8.98
2018-06-29T22:57:49.646Z,8.60
2018-06-29T23:02:24.233Z,8.45
2018-06-29T23:06:58.729Z,8.65
2018-06-29T23:11:33.029Z,8.55
2018-06-29T23:16:07.698Z,9.90
2018-06-29T23:20:42.526Z,9.58
2018-06-29T23:25:17.077Z,8.63
2018-06-29T23:29:51.491Z,9.40
2018-06-29T23:34:26.093Z,10.08
2018-06-29T23:39:00.469Z,9.83
2018-06-29T23:43:35.159Z,10.18
2018-06-29T23:48:10.168Z,10.43
2018-06-29T23:52:44.521Z,10.50
2018-06-29T23:57:19.642Z,10.03
